Time;durP1;ratioP1;P1;durP2;ratioP2;P2;SDS_P1;SDS_P2;PMS_P1;PMS_P2;Temp;Humidity;BMP_temperature;BMP_pressure;BME280_temperature;BME280_humidity;BME280_pressure;Samples;Min_cycle;Max_cycle;Signal;HPM_P1;HPM_P2
2021/10/30 00:01:29;;;;;;;9.13;7.43;;;12.00;99.90;;;;;;5059085;28;20686;-70
2021/10/30 00:03:57;;;;;;;8.57;7.70;;;11.90;99.90;;;;;;5066463;28;20235;-69
2021/10/30 00:06:25;;;;;;;8.77;7.97;;;11.90;99.90;;;;;;5066399;28;20639;-69
2021/10/30 00:08:53;;;;;;;9.07;8.17;;;11.80;99.90;;;;;;5065898;28;20234;-70
2021/10/30 00:11:22;;;;;;;9.37;7.73;;;11.70;99.90;;;;;;5066689;28;20238;-70
2021/10/30 00:13:50;;;;;;;8.57;7.70;;;11.80;99.90;;;;;;5065856;28;20276;-70
2021/10/30 00:16:19;;;;;;;8.43;7.63;;;11.70;99.90;;;;;;5066915;28;20264;-69
2021/10/30 00:18:49;;;;;;;9.47;7.77;;;11.70;99.90;;;;;;5065186;28;20789;-70
2021/10/30 00:21:19;;;;;;;9.17;8.03;;;11.70;99.90;;;;;;5062587;28;20325;-69
2021/10/30 00:23:47;;;;;;;9.30;8.00;;;11.70;99.90;;;;;;5066362;28;20298;-69
2021/10/30 00:26:15;;;;;;;9.27;7.73;;;11.80;99.90;;;;;;5066894;28;20240;-69
2021/10/30 00:28:44;;;;;;;9.87;8.03;;;11.70;99.90;;;;;;5064992;28;20337;-69
2021/10/30 00:31:13;;;;;;;8.83;7.93;;;11.80;99.90;;;;;;5066068;28;20240;-70
2021/10/30 00:33:41;;;;;;;8.37;7.13;;;11.70;99.90;;;;;;5065777;28;20723;-70
2021/10/30 00:36:10;;;;;;;8.67;7.80;;;11.60;99.90;;;;;;5066716;28;20321;-70
2021/10/30 00:38:38;;;;;;;9.03;8.13;;;11.60;99.90;;;;;;5065538;28;20287;-70
2021/10/30 00:41:09;;;;;;;8.97;8.03;;;11.60;99.90;;;;;;5065960;28;20663;-70
2021/10/30 00:43:37;;;;;;;9.37;8.17;;;11.60;99.90;;;;;;5059117;28;20745;-70
2021/10/30 00:46:06;;;;;;;9.43;8.13;;;11.50;99.90;;;;;;5065802;28;20225;-70
2021/10/30 00:48:34;;;;;;;10.27;7.83;;;11.60;99.90;;;;;;5065314;28;20237;-70
2021/10/30 00:51:05;;;;;;;9.83;7.53;;;11.60;99.90;;;;;;5066033;28;20225;-70
2021/10/30 00:53:36;;;;;;;9.73;7.93;;;11.60;99.90;;;;;;5061008;28;20229;-70
2021/10/30 00:56:06;;;;;;;10.00;7.30;;;11.60;99.90;;;;;;5066332;28;20755;-70
2021/10/30 00:58:35;;;;;;;9.20;7.90;;;11.60;99.90;;;;;;5064923;28;20269;-69
2021/10/30 01:01:06;;;;;;;9.10;7.73;;;11.50;99.90;;;;;;5065891;28;20253;-69
2021/10/30 01:03:36;;;;;;;8.37;7.13;;;11.60;99.90;;;;;;5058628;28;20237;-69
2021/10/30 01:06:04;;;;;;;9.57;8.20;;;11.50;99.90;;;;;;5066531;28;20264;-69
2021/10/30 01:08:34;;;;;;;9.03;7.87;;;11.50;99.90;;;;;;5065244;28;20232;-69
2021/10/30 01:11:02;;;;;;;8.20;7.40;;;11.50;99.90;;;;;;5065249;28;20244;-70
2021/10/30 01:13:32;;;;;;;10.33;8.07;;;11.50;99.90;;;;;;5065097;28;20308;-69
2021/10/30 01:16:00;;;;;;;8.33;7.47;;;11.50;99.90;;;;;;5065929;28;20286;-70
2021/10/30 01:18:28;;;;;;;9.80;8.10;;;11.50;99.90;;;;;;5058561;28;20230;-70
2021/10/30 01:20:58;;;;;;;11.27;8.70;;;11.40;99.90;;;;;;5065094;28;20319;-69
2021/10/30 01:23:27;;;;;;;11.37;8.03;;;11.40;99.90;;;;;;5065137;28;20640;-69
2021/10/30 01:25:58;;;;;;;10.07;7.33;;;11.40;99.90;;;;;;5066243;28;20263;-70
2021/10/30 01:28:26;;;;;;;8.53;7.77;;;11.40;99.90;;;;;;5065237;28;20660;-70
2021/10/30 01:30:55;;;;;;;8.37;7.53;;;11.40;99.90;;;;;;5065769;28;20234;-70
2021/10/30 01:33:24;;;;;;;9.57;7.87;;;11.40;99.90;;;;;;5065308;28;20250;-70
2021/10/30 01:35:52;;;;;;;11.27;8.03;;;11.40;99.90;;;;;;5065928;28;20253;-70
2021/10/30 01:38:22;;;;;;;9.33;8.00;;;11.30;99.90;;;;;;5064736;28;20240;-70
2021/10/30 01:40:51;;;;;;;8.90;7.77;;;11.30;99.90;;;;;;5065230;28;20238;-70
2021/10/30 01:43:20;;;;;;;10.13;8.33;;;11.30;99.90;;;;;;5061797;28;20230;-68
2021/10/30 01:45:48;;;;;;;9.97;7.87;;;11.30;99.90;;;;;;5069471;28;20262;-70
2021/10/30 01:48:17;;;;;;;9.13;7.90;;;11.30;99.90;;;;;;5068475;28;20753;-69
2021/10/30 01:50:48;;;;;;;9.97;7.90;;;11.20;99.90;;;;;;5068471;28;20248;-69
2021/10/30 01:53:16;;;;;;;9.10;8.03;;;11.20;99.90;;;;;;5071363;28;20229;-70
2021/10/30 01:55:47;;;;;;;9.37;7.80;;;11.20;99.90;;;;;;5069354;28;20241;-70
2021/10/30 01:58:15;;;;;;;9.90;7.93;;;11.20;99.90;;;;;;5065540;28;20584;-70
2021/10/30 02:00:44;;;;;;;8.73;7.57;;;11.20;99.90;;;;;;5062213;28;20319;-70
2021/10/30 02:03:13;;;;;;;8.47;7.67;;;11.20;99.90;;;;;;5066942;28;20720;-70
2021/10/30 02:05:41;;;;;;;8.97;7.80;;;11.20;99.90;;;;;;5068987;28;20233;-70
2021/10/30 02:08:09;;;;;;;8.53;7.63;;;11.10;99.90;;;;;;5068461;28;20240;-70
2021/10/30 02:10:37;;;;;;;9.73;7.50;;;11.10;99.90;;;;;;5068405;28;20240;-69
2021/10/30 02:13:07;;;;;;;12.47;8.37;;;11.30;99.90;;;;;;5066330;28;20289;-69
2021/10/30 02:15:35;;;;;;;8.67;7.80;;;11.20;99.90;;;;;;5068317;28;20243;-69
2021/10/30 02:18:03;;;;;;;9.90;8.90;;;11.20;99.90;;;;;;5068340;28;20241;-69
2021/10/30 02:20:31;;;;;;;8.90;7.80;;;11.20;99.90;;;;;;5067338;28;20240;-70
2021/10/30 02:23:00;;;;;;;8.50;7.70;;;11.20;99.90;;;;;;5068741;28;20260;-70
2021/10/30 02:25:28;;;;;;;10.70;8.43;;;11.20;99.90;;;;;;5067346;28;20601;-69
2021/10/30 02:27:56;;;;;;;8.30;7.50;;;11.10;99.90;;;;;;5068227;28;20233;-70
2021/10/30 02:30:26;;;;;;;8.90;7.97;;;11.20;99.90;;;;;;5067668;28;20740;-70
2021/10/30 02:32:55;;;;;;;8.37;7.47;;;11.20;99.90;;;;;;5066014;28;20239;-69
2021/10/30 02:35:23;;;;;;;8.93;7.60;;;11.20;99.90;;;;;;5067712;28;20292;-69
2021/10/30 02:37:51;;;;;;;8.63;7.57;;;11.10;99.90;;;;;;5068460;28;20233;-69
2021/10/30 02:40:19;;;;;;;8.60;7.70;;;11.10;99.90;;;;;;5067679;28;20336;-69
2021/10/30 02:42:47;;;;;;;9.83;8.27;;;11.10;99.90;;;;;;5067642;28;20231;-70
2021/10/30 02:45:16;;;;;;;8.40;7.60;;;11.10;99.90;;;;;;5068766;28;20252;-70
2021/10/30 02:47:45;;;;;;;9.03;7.43;;;11.00;99.90;;;;;;5068297;28;20240;-70
2021/10/30 02:50:13;;;;;;;8.30;7.50;;;11.10;99.90;;;;;;5067855;28;20319;-70
2021/10/30 02:52:42;;;;;;;11.33;8.00;;;11.00;99.90;;;;;;5068067;28;20231;-70
2021/10/30 02:55:10;;;;;;;8.70;7.80;;;10.90;99.90;;;;;;5067182;28;20330;-69
2021/10/30 02:57:46;;;;;;;10.20;8.60;;;10.90;99.90;;;;;;5067942;28;20291;-69
2021/10/30 03:00:15;;;;;;;8.40;7.37;;;10.90;99.90;;;;;;5067737;28;20316;-70
2021/10/30 03:02:45;;;;;;;9.57;7.70;;;10.90;99.90;;;;;;5064172;28;20700;-69
2021/10/30 03:05:13;;;;;;;9.63;8.13;;;10.90;99.90;;;;;;5065098;28;20292;-70
2021/10/30 03:07:42;;;;;;;9.00;7.70;;;10.80;99.90;;;;;;5067551;28;20248;-69
2021/10/30 03:10:10;;;;;;;10.20;7.53;;;10.90;99.90;;;;;;5067054;28;20324;-69
2021/10/30 03:12:38;;;;;;;8.97;8.00;;;10.80;99.90;;;;;;5067817;28;20235;-70
2021/10/30 03:15:08;;;;;;;9.30;7.73;;;10.80;99.90;;;;;;5067661;28;20524;-70
2021/10/30 03:17:36;;;;;;;8.40;7.23;;;10.80;99.90;;;;;;5059625;28;20725;-70
2021/10/30 03:20:07;;;;;;;9.70;7.67;;;10.80;99.90;;;;;;5066022;28;20239;-70
2021/10/30 03:22:36;;;;;;;8.77;7.33;;;10.90;99.90;;;;;;5067202;28;20240;-70
2021/10/30 03:25:05;;;;;;;10.80;8.13;;;11.00;99.90;;;;;;5067042;28;20232;-69
2021/10/30 03:27:34;;;;;;;9.37;8.23;;;10.90;99.90;;;;;;5067329;28;20309;-70
2021/10/30 03:30:02;;;;;;;9.47;8.00;;;10.90;99.90;;;;;;5066304;28;20320;-70
2021/10/30 03:32:30;;;;;;;8.40;7.43;;;10.80;99.90;;;;;;5060834;28;20278;-70
2021/10/30 03:34:58;;;;;;;9.33;7.33;;;10.90;99.90;;;;;;5066522;28;20311;-70
2021/10/30 03:37:28;;;;;;;8.53;6.73;;;10.90;99.90;;;;;;5067010;28;20236;-70
2021/10/30 03:39:56;;;;;;;8.03;7.13;;;10.80;99.90;;;;;;5066517;28;20239;-69
2021/10/30 03:42:25;;;;;;;8.83;7.93;;;10.80;99.90;;;;;;5066437;28;20274;-69
2021/10/30 03:44:53;;;;;;;9.43;7.40;;;10.80;99.90;;;;;;5067012;28;20722;-69
2021/10/30 03:47:21;;;;;;;8.53;7.53;;;10.80;99.90;;;;;;5066634;28;20244;-69
2021/10/30 03:49:49;;;;;;;8.80;7.73;;;10.80;99.90;;;;;;5066205;28;20775;-69
2021/10/30 03:52:17;;;;;;;8.30;6.77;;;10.70;99.90;;;;;;5067166;28;20312;-68
2021/10/30 03:54:46;;;;;;;7.93;7.07;;;10.80;99.90;;;;;;5066779;28;20233;-69
2021/10/30 03:57:15;;;;;;;7.77;6.97;;;10.80;99.90;;;;;;5067118;28;20283;-70
2021/10/30 03:59:44;;;;;;;9.03;7.20;;;10.80;99.90;;;;;;5066064;28;20300;-70
2021/10/30 04:02:12;;;;;;;8.33;7.47;;;10.70;99.90;;;;;;5066817;28;20289;-70
2021/10/30 04:04:41;;;;;;;8.13;7.33;;;10.60;99.90;;;;;;5066308;28;20240;-70
2021/10/30 04:07:09;;;;;;;8.77;7.87;;;10.70;99.90;;;;;;5066284;28;20256;-69
2021/10/30 04:09:40;;;;;;;8.80;7.53;;;10.60;99.90;;;;;;5065941;28;20239;-69
2021/10/30 04:12:11;;;;;;;9.10;8.10;;;10.70;99.90;;;;;;5065164;28;20308;-70
2021/10/30 04:14:40;;;;;;;10.30;7.60;;;10.70;99.90;;;;;;5066021;28;20240;-68
2021/10/30 04:17:08;;;;;;;11.20;7.73;;;10.70;99.90;;;;;;5066499;28;20619;-69
2021/10/30 04:19:36;;;;;;;10.90;7.87;;;10.70;99.90;;;;;;5064751;28;20330;-70
2021/10/30 04:22:05;;;;;;;8.73;7.60;;;10.70;99.90;;;;;;5066094;28;20326;-70
2021/10/30 04:24:33;;;;;;;8.80;7.60;;;10.70;99.90;;;;;;5066390;28;20264;-70
2021/10/30 04:27:03;;;;;;;9.17;7.47;;;10.60;99.90;;;;;;5048283;28;20285;-70
2021/10/30 04:29:33;;;;;;;9.47;7.70;;;10.60;99.90;;;;;;5058733;28;20289;-70
2021/10/30 04:32:03;;;;;;;8.57;7.67;;;10.60;99.90;;;;;;5066542;28;20284;-69
2021/10/30 04:34:41;;;;;;;11.73;7.57;;;10.70;99.90;;;;;;5066061;28;20233;-69
2021/10/30 04:37:15;;;;;;;10.13;7.90;;;10.60;99.90;;;;;;5066395;28;20235;-70
2021/10/30 04:39:44;;;;;;;9.50;7.70;;;10.70;99.90;;;;;;5064870;28;20645;-70
2021/10/30 04:42:13;;;;;;;8.00;7.20;;;10.60;99.90;;;;;;5059889;28;20642;-70
2021/10/30 04:44:43;;;;;;;9.83;7.80;;;10.60;99.90;;;;;;5065732;28;20240;-69
2021/10/30 04:47:13;;;;;;;8.97;8.07;;;10.50;99.90;;;;;;5066242;28;20231;-70
2021/10/30 04:49:43;;;;;;;8.23;7.33;;;10.50;99.90;;;;;;5064837;28;20240;-70
2021/10/30 04:52:12;;;;;;;9.23;7.50;;;10.50;99.90;;;;;;5066084;28;20239;-70
2021/10/30 04:54:40;;;;;;;8.67;7.77;;;10.50;99.90;;;;;;5073664;28;20236;-70
2021/10/30 04:57:08;;;;;;;9.20;7.37;;;10.60;99.90;;;;;;5078270;28;20319;-70
2021/10/30 04:59:36;;;;;;;8.60;7.70;;;10.60;99.90;;;;;;5070815;28;20713;-70
2021/10/30 05:02:06;;;;;;;9.03;7.53;;;10.60;99.90;;;;;;5071205;28;20735;-69
2021/10/30 05:04:34;;;;;;;8.67;7.77;;;10.60;99.90;;;;;;5075128;28;20326;-70
2021/10/30 05:07:03;;;;;;;9.47;8.07;;;10.60;99.90;;;;;;5077936;28;20224;-69
2021/10/30 05:09:31;;;;;;;8.63;7.73;;;10.60;99.90;;;;;;5071654;28;20239;-69
2021/10/30 05:11:59;;;;;;;10.50;7.77;;;10.60;99.90;;;;;;5075700;28;20729;-70
2021/10/30 05:14:28;;;;;;;8.37;7.53;;;10.60;99.90;;;;;;5075997;28;20702;-70
2021/10/30 05:16:56;;;;;;;8.93;7.43;;;10.60;99.90;;;;;;5076511;28;20235;-69
2021/10/30 05:19:25;;;;;;;8.57;7.67;;;10.60;99.90;;;;;;5078400;28;20316;-70
2021/10/30 05:21:54;;;;;;;10.17;7.70;;;10.60;99.90;;;;;;5072846;28;20247;-70
2021/10/30 05:24:23;;;;;;;10.87;8.03;;;10.60;99.90;;;;;;5069103;28;20937;-69
2021/10/30 05:26:51;;;;;;;8.80;7.47;;;10.60;99.90;;;;;;5077812;28;20250;-70
2021/10/30 05:29:19;;;;;;;10.00;7.47;;;10.60;99.90;;;;;;5068364;28;20236;-70
2021/10/30 05:31:47;;;;;;;8.73;7.93;;;10.50;99.90;;;;;;5069019;28;20257;-69
2021/10/30 05:34:15;;;;;;;11.83;8.30;;;10.50;99.90;;;;;;5069467;28;20259;-70
2021/10/30 05:37:08;;;;;;;11.63;8.17;;;10.50;99.90;;;;;;5067238;28;20766;-70
2021/10/30 05:39:44;;;;;;;11.47;8.37;;;10.50;99.90;;;;;;5042228;28;20239;-69
2021/10/30 05:42:13;;;;;;;8.97;7.70;;;10.50;99.90;;;;;;5051700;28;20685;-68
2021/10/30 05:44:41;;;;;;;8.30;7.50;;;10.50;99.90;;;;;;5051305;28;21014;-69
2021/10/30 05:47:10;;;;;;;9.40;8.47;;;10.50;99.90;;;;;;5052206;28;20245;-69
2021/10/30 05:49:44;;;;;;;8.40;7.60;;;10.50;99.90;;;;;;5047741;28;20248;-70
2021/10/30 05:52:13;;;;;;;9.43;8.53;;;10.60;99.90;;;;;;5052243;28;20346;-68
2021/10/30 05:54:42;;;;;;;8.87;7.97;;;10.60;99.90;;;;;;5050811;28;20239;-70
2021/10/30 05:57:10;;;;;;;10.83;7.90;;;10.50;99.90;;;;;;5051406;28;20317;-70
2021/10/30 05:59:39;;;;;;;8.83;7.93;;;10.60;99.90;;;;;;5047244;28;20314;-70
2021/10/30 06:02:11;;;;;;;8.67;7.77;;;10.60;99.90;;;;;;5050554;28;20286;-69
2021/10/30 06:04:40;;;;;;;9.20;8.27;;;10.60;99.90;;;;;;5050915;28;20235;-68
2021/10/30 06:07:08;;;;;;;9.43;8.50;;;10.50;99.90;;;;;;5050833;28;20247;-68
2021/10/30 06:09:38;;;;;;;8.60;7.17;;;10.50;99.90;;;;;;5047217;28;20790;-69
2021/10/30 06:12:07;;;;;;;9.03;8.03;;;10.70;99.90;;;;;;5050046;28;20235;-69
2021/10/30 06:14:35;;;;;;;8.93;8.03;;;10.60;99.90;;;;;;5051053;28;20254;-69
2021/10/30 06:17:04;;;;;;;9.20;8.20;;;10.60;99.90;;;;;;5051177;28;20239;-68
2021/10/30 06:19:32;;;;;;;10.33;8.53;;;10.60;99.90;;;;;;5063683;28;20315;-69
2021/10/30 06:22:00;;;;;;;10.03;8.83;;;10.50;99.90;;;;;;5062988;28;20639;-69
2021/10/30 06:24:28;;;;;;;10.03;8.63;;;10.50;99.90;;;;;;5059204;28;20227;-70
2021/10/30 06:26:59;;;;;;;10.10;9.10;;;10.50;99.90;;;;;;5067687;28;20707;-70
2021/10/30 06:29:28;;;;;;;9.00;8.10;;;10.50;99.90;;;;;;5065352;28;20285;-68
2021/10/30 06:31:56;;;;;;;11.03;9.33;;;10.60;99.90;;;;;;5068168;28;20310;-70
2021/10/30 06:34:27;;;;;;;10.03;8.90;;;10.60;99.90;;;;;;5068241;28;20659;-69
2021/10/30 06:36:56;;;;;;;11.67;8.70;;;10.60;99.90;;;;;;5073589;28;20236;-70
2021/10/30 06:39:24;;;;;;;14.27;9.27;;;10.60;99.90;;;;;;5066859;28;20226;-70
2021/10/30 06:41:52;;;;;;;13.03;10.37;;;10.70;99.90;;;;;;5069425;28;20244;-70
2021/10/30 06:44:21;;;;;;;9.77;8.77;;;10.70;99.90;;;;;;5071200;28;20236;-69
2021/10/30 06:46:52;;;;;;;10.57;9.00;;;10.80;99.90;;;;;;5077951;28;20658;-69
2021/10/30 06:49:20;;;;;;;13.60;10.67;;;10.80;99.90;;;;;;5076594;28;20269;-70
2021/10/30 06:51:48;;;;;;;11.93;10.50;;;10.70;99.90;;;;;;5079270;28;20314;-70
2021/10/30 06:54:16;;;;;;;14.10;11.20;;;10.70;99.90;;;;;;5074079;28;20255;-70
2021/10/30 06:56:45;;;;;;;11.73;10.53;;;10.80;99.90;;;;;;5058393;28;20227;-70
2021/10/30 06:59:13;;;;;;;11.53;10.33;;;10.80;99.90;;;;;;5059128;28;20266;-70
2021/10/30 07:01:42;;;;;;;11.67;10.30;;;10.80;99.90;;;;;;5063366;28;20248;-70
2021/10/30 07:04:12;;;;;;;11.03;9.93;;;10.70;99.90;;;;;;5067217;28;20310;-70
2021/10/30 07:06:40;;;;;;;11.03;9.30;;;10.70;99.90;;;;;;5067613;28;20231;-70
2021/10/30 07:09:09;;;;;;;11.13;9.97;;;10.70;99.90;;;;;;5071828;28;20278;-69
2021/10/30 07:11:37;;;;;;;10.70;9.60;;;10.60;99.90;;;;;;5064075;28;20805;-70
2021/10/30 07:14:05;;;;;;;11.93;9.77;;;10.70;99.90;;;;;;5066647;28;20316;-69
2021/10/30 07:16:33;;;;;;;10.63;9.10;;;10.60;99.90;;;;;;5067569;28;20581;-70
2021/10/30 07:19:02;;;;;;;13.00;9.77;;;10.60;99.90;;;;;;5060633;28;20289;-70
2021/10/30 07:21:30;;;;;;;12.70;9.93;;;10.60;99.90;;;;;;5066128;28;20319;-69
2021/10/30 07:24:00;;;;;;;11.10;9.77;;;10.60;99.90;;;;;;5061580;28;20379;-70
2021/10/30 07:26:28;;;;;;;10.50;9.43;;;10.70;99.90;;;;;;5038143;28;20564;-70
2021/10/30 07:28:57;;;;;;;11.17;9.90;;;10.70;99.90;;;;;;5050033;28;20730;-69
2021/10/30 07:31:25;;;;;;;11.47;9.33;;;10.80;99.90;;;;;;5047604;28;20277;-70
2021/10/30 07:33:53;;;;;;;12.73;9.10;;;11.20;99.90;;;;;;5047436;28;20902;-70
2021/10/30 07:36:24;;;;;;;11.70;9.83;;;11.10;99.90;;;;;;5044543;28;20782;-70
2021/10/30 07:38:52;;;;;;;10.30;9.20;;;11.20;99.90;;;;;;5047761;28;20329;-70
2021/10/30 07:41:20;;;;;;;10.97;9.40;;;11.30;99.90;;;;;;5046621;28;20321;-70
2021/10/30 07:43:53;;;;;;;10.97;9.43;;;11.40;99.90;;;;;;5047266;28;20239;-71
2021/10/30 07:46:21;;;;;;;11.90;9.73;;;11.40;99.90;;;;;;5045525;28;20325;-70
2021/10/30 07:48:49;;;;;;;11.00;9.03;;;11.40;99.90;;;;;;5047064;28;20234;-69
2021/10/30 07:51:17;;;;;;;13.30;9.47;;;11.40;99.90;;;;;;5048550;28;20581;-71
2021/10/30 07:53:47;;;;;;;12.90;9.50;;;11.40;99.90;;;;;;5047186;28;20246;-69
2021/10/30 07:56:15;;;;;;;10.90;9.53;;;11.60;99.90;;;;;;5043959;28;20860;-70
2021/10/30 07:58:44;;;;;;;10.90;8.97;;;11.70;99.90;;;;;;5046932;28;20800;-69
2021/10/30 08:01:12;;;;;;;10.83;9.70;;;11.80;99.90;;;;;;5046608;28;20245;-69
2021/10/30 08:03:40;;;;;;;10.60;9.03;;;11.90;99.90;;;;;;5045304;28;20610;-69
2021/10/30 08:06:09;;;;;;;10.70;9.37;;;12.00;99.90;;;;;;5045181;28;20241;-71
2021/10/30 08:08:37;;;;;;;12.60;9.10;;;12.00;99.90;;;;;;5047668;28;20234;-70
2021/10/30 08:11:06;;;;;;;11.70;9.70;;;12.00;99.90;;;;;;5047026;28;20339;-69
2021/10/30 08:13:35;;;;;;;11.50;9.53;;;12.10;99.90;;;;;;5047064;28;20236;-69
2021/10/30 08:16:03;;;;;;;11.20;9.83;;;12.00;99.90;;;;;;5039194;28;20266;-69
2021/10/30 08:18:31;;;;;;;11.03;9.80;;;12.00;99.90;;;;;;5046952;28;20344;-71
2021/10/30 08:20:59;;;;;;;10.93;9.47;;;12.00;99.90;;;;;;5044804;28;20249;-71
2021/10/30 08:23:29;;;;;;;10.87;9.57;;;12.00;99.90;;;;;;5029439;28;20236;-71
2021/10/30 08:25:58;;;;;;;13.73;9.83;;;12.00;99.90;;;;;;5027418;28;20683;-71
2021/10/30 08:28:27;;;;;;;10.70;9.40;;;12.00;99.90;;;;;;5032717;28;20590;-69
2021/10/30 08:30:55;;;;;;;11.33;9.90;;;11.90;99.90;;;;;;5033547;28;20242;-70
2021/10/30 08:33:24;;;;;;;14.10;9.93;;;11.80;99.90;;;;;;5034906;28;20240;-70
2021/10/30 08:35:52;;;;;;;10.37;9.30;;;11.80;99.90;;;;;;5032282;28;20247;-70
2021/10/30 08:38:20;;;;;;;11.07;9.37;;;11.80;99.90;;;;;;5034327;28;20721;-71
2021/10/30 08:40:48;;;;;;;12.67;9.37;;;11.80;99.90;;;;;;5035178;28;21061;-69
2021/10/30 08:43:20;;;;;;;12.57;9.20;;;11.80;99.90;;;;;;5035657;28;20240;-70
2021/10/30 08:45:51;;;;;;;10.43;9.33;;;11.70;99.90;;;;;;5031006;28;20674;-69
2021/10/30 08:48:20;;;;;;;10.83;9.13;;;11.80;99.90;;;;;;5034114;28;20241;-70
2021/10/30 08:50:48;;;;;;;10.10;8.60;;;11.80;99.90;;;;;;5036192;28;20271;-70
2021/10/30 08:53:16;;;;;;;11.73;9.30;;;11.80;99.90;;;;;;5027596;28;20245;-70
2021/10/30 08:55:44;;;;;;;10.37;8.47;;;11.90;99.90;;;;;;5036519;28;20241;-71
2021/10/30 08:58:14;;;;;;;10.40;8.93;;;11.90;99.90;;;;;;5039544;28;20247;-70
2021/10/30 09:00:45;;;;;;;9.27;8.30;;;11.90;99.90;;;;;;5037084;28;20268;-70
2021/10/30 09:03:16;;;;;;;8.97;7.90;;;11.90;99.90;;;;;;5036952;28;20250;-70
2021/10/30 09:05:47;;;;;;;9.27;8.33;;;11.90;99.90;;;;;;5034425;28;20255;-69
2021/10/30 09:08:17;;;;;;;9.00;7.70;;;11.90;99.90;;;;;;5037634;28;21327;-69
2021/10/30 09:10:47;;;;;;;9.23;8.33;;;12.10;99.90;;;;;;5038380;28;20236;-69
2021/10/30 09:13:16;;;;;;;11.37;8.47;;;12.10;99.90;;;;;;5038362;28;20241;-69
2021/10/30 09:15:47;;;;;;;8.67;7.73;;;12.00;99.90;;;;;;5034567;28;20239;-69
2021/10/30 09:18:29;;;;;;;8.73;7.13;;;12.10;99.90;;;;;;5038984;28;20632;-70
2021/10/30 09:21:14;;;;;;;9.70;7.90;;;12.10;99.90;;;;;;5038060;28;20233;-70
2021/10/30 09:23:45;;;;;;;7.37;6.60;;;12.00;99.90;;;;;;5040048;28;20245;-70
2021/10/30 09:26:19;;;;;;;7.83;7.03;;;12.00;99.90;;;;;;5035587;28;20330;-69
2021/10/30 09:28:54;;;;;;;7.63;6.90;;;12.00;99.90;;;;;;5039214;28;20776;-69
2021/10/30 09:31:23;;;;;;;8.20;7.30;;;12.10;99.90;;;;;;5039234;28;20356;-69
2021/10/30 09:33:56;;;;;;;10.57;7.30;;;12.20;99.90;;;;;;5039009;28;20314;-69
2021/10/30 09:36:29;;;;;;;10.10;7.47;;;12.20;99.90;;;;;;5034166;28;20354;-69
2021/10/30 09:39:00;;;;;;;9.50;6.53;;;12.30;99.90;;;;;;5041887;28;20265;-70
2021/10/30 09:41:31;;;;;;;7.90;6.80;;;12.30;99.90;;;;;;5040406;28;20343;-69
2021/10/30 09:44:02;;;;;;;7.27;6.53;;;12.40;99.90;;;;;;5039886;28;20339;-70
2021/10/30 09:46:32;;;;;;;7.33;6.63;;;12.40;99.90;;;;;;5036579;28;20260;-70
2021/10/30 09:49:12;;;;;;;8.17;7.17;;;12.50;99.90;;;;;;5041101;28;20345;-69
2021/10/30 09:51:41;;;;;;;7.30;6.53;;;12.50;99.90;;;;;;5040985;28;20273;-69
2021/10/30 09:54:10;;;;;;;6.57;5.97;;;12.50;99.90;;;;;;5039539;28;20340;-69
2021/10/30 09:56:47;;;;;;;12.03;6.10;;;12.50;99.90;;;;;;5035350;28;20721;-70
2021/10/30 09:59:16;;;;;;;7.33;6.43;;;12.60;99.90;;;;;;5040885;28;20246;-70
2021/10/30 10:01:46;;;;;;;7.57;5.83;;;12.60;99.90;;;;;;5040859;28;20288;-69
2021/10/30 10:04:18;;;;;;;7.00;5.90;;;12.60;99.90;;;;;;5037336;28;20244;-71
2021/10/30 10:06:48;;;;;;;7.23;6.13;;;12.70;99.90;;;;;;5033792;28;20963;-70
2021/10/30 10:09:17;;;;;;;6.57;5.50;;;12.70;99.90;;;;;;5038274;28;20246;-70
2021/10/30 10:11:46;;;;;;;6.90;5.97;;;12.80;99.90;;;;;;5038501;28;20239;-70
2021/10/30 10:14:16;;;;;;;6.87;5.40;;;12.90;99.90;;;;;;5038229;28;20226;-70
2021/10/30 10:16:45;;;;;;;5.80;5.20;;;13.00;99.90;;;;;;5032408;28;20239;-71
2021/10/30 10:19:15;;;;;;;6.73;5.33;;;13.00;99.90;;;;;;5037504;28;20300;-70
2021/10/30 10:21:44;;;;;;;6.10;5.50;;;13.10;99.90;;;;;;5037753;28;20257;-70
2021/10/30 10:24:15;;;;;;;8.20;5.50;;;13.20;99.90;;;;;;5038214;28;20618;-71
2021/10/30 10:26:52;;;;;;;5.97;5.30;;;13.30;99.90;;;;;;5032008;28;20248;-71
2021/10/30 10:29:32;;;;;;;8.30;5.60;;;13.30;99.90;;;;;;5037062;28;20241;-69
2021/10/30 10:32:03;;;;;;;6.43;5.17;;;13.20;99.90;;;;;;5036457;28;20590;-70
2021/10/30 10:34:34;;;;;;;6.40;5.07;;;13.30;99.90;;;;;;5037675;28;20250;-70
2021/10/30 10:37:20;;;;;;;6.00;4.50;;;13.50;99.90;;;;;;5030672;28;20294;-71
2021/10/30 10:39:50;;;;;;;8.07;4.87;;;13.50;99.90;;;;;;5037069;28;20277;-69
2021/10/30 10:42:41;;;;;;;7.30;5.00;;;13.60;99.90;;;;;;5038383;28;20230;-69
2021/10/30 10:45:11;;;;;;;4.83;4.30;;;13.60;99.90;;;;;;5036961;28;20333;-71
2021/10/30 10:48:02;;;;;;;6.77;4.73;;;13.70;99.90;;;;;;5029348;28;20242;-69
2021/10/30 10:50:49;;;;;;;5.03;4.57;;;13.80;99.90;;;;;;5036721;28;20591;-70
2021/10/30 10:53:24;;;;;;;5.83;4.60;;;13.80;99.90;;;;;;5037329;28;20295;-69
2021/10/30 10:56:11;;;;;;;6.67;5.20;;;14.00;99.90;;;;;;5031937;28;20347;-70
2021/10/30 10:59:22;;;;;;;8.53;5.77;;;14.00;99.90;;;;;;5036041;28;20765;-69
2021/10/30 11:02:16;;;;;;;5.50;4.90;;;14.10;99.90;;;;;;5037184;28;20231;-69
2021/10/30 11:05:23;;;;;;;6.93;5.23;;;14.20;99.90;;;;;;5036236;28;20672;-70
2021/10/30 11:08:29;;;;;;;6.33;5.03;;;14.10;99.90;;;;;;5033748;28;20250;-69
2021/10/30 11:11:15;;;;;;;6.60;4.90;;;14.10;99.90;;;;;;5036744;28;20270;-69
2021/10/30 11:13:50;;;;;;;5.67;4.67;;;13.80;99.90;;;;;;5036852;28;20238;-69
2021/10/30 11:16:25;;;;;;;7.03;5.30;;;13.70;99.90;;;;;;5028191;28;20237;-70
2021/10/30 11:19:11;;;;;;;7.40;4.80;;;13.80;99.90;;;;;;5036734;28;20714;-70
2021/10/30 11:21:45;;;;;;;7.50;5.63;;;13.90;99.90;;;;;;5035609;28;20273;-70
2021/10/30 11:24:32;;;;;;;6.20;4.73;;;13.80;99.90;;;;;;5036704;28;20288;-69
2021/10/30 11:27:04;;;;;;;6.57;5.10;;;14.00;99.90;;;;;;5028528;28;20265;-69
2021/10/30 11:29:34;;;;;;;6.17;5.40;;;14.00;99.90;;;;;;5034241;28;20242;-69
2021/10/30 11:32:04;;;;;;;6.67;5.10;;;14.00;99.90;;;;;;5036141;28;20808;-69
2021/10/30 11:34:32;;;;;;;6.00;4.87;;;14.00;99.90;;;;;;5036501;28;20902;-70
2021/10/30 11:37:00;;;;;;;4.93;4.17;;;14.00;99.90;;;;;;5029317;28;20242;-69
2021/10/30 11:39:32;;;;;;;6.03;4.53;;;14.00;99.90;;;;;;5035413;28;20354;-69
2021/10/30 11:42:05;;;;;;;4.63;3.87;;;14.00;99.90;;;;;;5036824;28;20273;-69
2021/10/30 11:44:48;;;;;;;6.27;4.30;;;14.10;99.90;;;;;;5036451;28;20248;-69
2021/10/30 11:47:20;;;;;;;7.67;4.30;;;14.20;99.90;;;;;;5028983;28;20242;-69
2021/10/30 11:49:51;;;;;;;8.00;4.23;;;14.30;99.90;;;;;;5035636;28;20242;-69
2021/10/30 11:52:20;;;;;;;4.40;4.00;;;14.20;99.90;;;;;;5036500;28;20620;-69
2021/10/30 11:54:56;;;;;;;4.97;4.17;;;14.20;99.90;;;;;;5035850;28;20239;-70
2021/10/30 11:57:25;;;;;;;4.23;3.83;;;14.30;99.90;;;;;;5028029;28;20234;-71
2021/10/30 11:59:58;;;;;;;5.37;4.10;;;14.40;99.90;;;;;;5036671;28;20249;-71
2021/10/30 12:02:38;;;;;;;8.73;4.13;;;14.30;99.90;;;;;;5036143;28;20734;-70
2021/10/30 12:05:13;;;;;;;5.43;3.93;;;14.30;99.90;;;;;;5035198;28;20243;-70
2021/10/30 12:07:45;;;;;;;4.37;3.97;;;14.30;99.90;;;;;;5027911;28;20361;-71
2021/10/30 12:10:23;;;;;;;5.53;3.87;;;14.40;99.90;;;;;;5036214;28;20331;-70
2021/10/30 12:12:52;;;;;;;6.70;4.37;;;14.40;99.90;;;;;;5036103;28;20330;-70
2021/10/30 12:15:21;;;;;;;6.30;3.90;;;14.50;99.90;;;;;;5034933;28;20337;-70
2021/10/30 12:17:49;;;;;;;5.27;3.70;;;14.60;99.90;;;;;;5028254;28;20301;-70
2021/10/30 12:20:19;;;;;;;4.37;3.93;;;14.80;99.90;;;;;;5035092;28;20234;-70
2021/10/30 12:22:48;;;;;;;4.90;3.80;;;14.80;99.90;;;;;;5047157;28;20298;-70
2021/10/30 12:25:26;;;;;;;4.87;3.70;;;14.80;99.90;;;;;;5054778;28;20244;-70
2021/10/30 12:27:57;;;;;;;4.20;3.80;;;14.90;99.90;;;;;;5023762;28;20261;-70
2021/10/30 12:30:30;;;;;;;4.53;3.63;;;14.80;99.90;;;;;;5028292;28;20243;-70
2021/10/30 12:33:09;;;;;;;4.43;3.50;;;14.90;99.90;;;;;;5029419;28;20238;-71
2021/10/30 12:35:40;;;;;;;4.40;3.40;;;15.00;99.90;;;;;;5025553;28;20665;-70
2021/10/30 12:38:11;;;;;;;5.80;3.73;;;14.90;99.90;;;;;;5024643;28;20246;-70
2021/10/30 12:40:44;;;;;;;5.10;4.43;;;15.00;99.90;;;;;;5028426;28;20235;-69
2021/10/30 12:43:13;;;;;;;5.53;4.87;;;15.10;99.90;;;;;;5028328;28;20245;-70
2021/10/30 12:45:45;;;;;;;8.50;5.50;;;15.10;99.90;;;;;;5025144;28;20243;-69
2021/10/30 12:48:15;;;;;;;7.27;4.60;;;15.10;99.90;;;;;;5025276;28;20385;-70
2021/10/30 12:50:53;;;;;;;4.63;4.23;;;15.00;99.90;;;;;;5027999;28;20313;-70
2021/10/30 12:53:26;;;;;;;5.93;4.70;;;15.00;99.90;;;;;;5028119;28;20239;-70
2021/10/30 12:56:04;;;;;;;5.13;4.00;;;15.00;99.90;;;;;;5023600;28;20746;-69
2021/10/30 12:58:41;;;;;;;5.83;4.50;;;15.00;99.90;;;;;;5028625;28;20895;-70
2021/10/30 13:01:17;;;;;;;7.00;4.17;;;15.10;99.90;;;;;;5028561;28;20322;-70